sensor_id;sensor_type;location;lat;lon;timestamp;pressure;altitude;pressure_sealevel;temperature;humidity
46534;BME280;32260;52.008;4.752;2023-02-26T00:01:55;102039.47;;;3.76;62.76
46534;BME280;32260;52.008;4.752;2023-02-26T00:04:26;102040.34;;;3.75;62.76
46534;BME280;32260;52.008;4.752;2023-02-26T00:06:52;102042.03;;;3.73;62.84
46534;BME280;32260;52.008;4.752;2023-02-26T00:09:18;102046.38;;;3.72;62.97
46534;BME280;32260;52.008;4.752;2023-02-26T00:11:45;102054.19;;;3.71;62.88
46534;BME280;32260;52.008;4.752;2023-02-26T00:14:14;102054.19;;;3.71;63.34
46534;BME280;32260;52.008;4.752;2023-02-26T00:16:40;102053.31;;;3.70;63.23
46534;BME280;32260;52.008;4.752;2023-02-26T00:19:09;102059.44;;;3.71;63.59
46534;BME280;32260;52.008;4.752;2023-02-26T00:21:35;102066.41;;;3.69;63.54
46534;BME280;32260;52.008;4.752;2023-02-26T00:24:02;102069.84;;;3.68;63.21
46534;BME280;32260;52.008;4.752;2023-02-26T00:26:29;102073.31;;;3.67;63.15
46534;BME280;32260;52.008;4.752;2023-02-26T00:28:56;102072.41;;;3.66;63.21
46534;BME280;32260;52.008;4.752;2023-02-26T00:31:22;102077.72;;;3.68;63.77
46534;BME280;32260;52.008;4.752;2023-02-26T00:33:50;102075.97;;;3.68;63.46
46534;BME280;32260;52.008;4.752;2023-02-26T00:36:22;102088.41;;;3.76;63.35
46534;BME280;32260;52.008;4.752;2023-02-26T00:41:48;102093.09;;;3.87;62.74
46534;BME280;32260;52.008;4.752;2023-02-26T00:44:14;102090.75;;;3.97;62.57
46534;BME280;32260;52.008;4.752;2023-02-26T00:46:48;102100.66;;;4.09;62.88
46534;BME280;32260;52.008;4.752;2023-02-26T00:55:18;102102.09;;;4.29;62.12
46534;BME280;32260;52.008;4.752;2023-02-26T00:57:45;102099.50;;;4.31;61.30
46534;BME280;32260;52.008;4.752;2023-02-26T01:00:11;102106.69;;;4.38;61.31
46534;BME280;32260;52.008;4.752;2023-02-26T01:02:38;102108.66;;;4.47;61.31
46534;BME280;32260;52.008;4.752;2023-02-26T01:05:06;102104.34;;;4.49;61.14
46534;BME280;32260;52.008;4.752;2023-02-26T01:07:41;102106.22;;;4.54;60.53
46534;BME280;32260;52.008;4.752;2023-02-26T01:10:10;102110.56;;;4.52;60.74
46534;BME280;32260;52.008;4.752;2023-02-26T01:12:37;102115.81;;;4.52;60.64
46534;BME280;32260;52.008;4.752;2023-02-26T01:15:04;102112.31;;;4.53;60.32
46534;BME280;32260;52.008;4.752;2023-02-26T01:20:26;102136.84;;;4.54;60.01
46534;BME280;32260;52.008;4.752;2023-02-26T01:22:59;102138.34;;;4.44;60.43
46534;BME280;32260;52.008;4.752;2023-02-26T01:25:27;102144.56;;;4.48;60.33
46534;BME280;32260;52.008;4.752;2023-02-26T01:27:55;102137.94;;;4.29;60.70
46534;BME280;32260;52.008;4.752;2023-02-26T01:30:23;102143.78;;;4.18;60.25
46534;BME280;32260;52.008;4.752;2023-02-26T01:33:58;102148.00;;;4.13;61.08
46534;BME280;32260;52.008;4.752;2023-02-26T01:35:47;102149.56;;;4.05;60.76
46534;BME280;32260;52.008;4.752;2023-02-26T01:38:23;102158.16;;;4.01;61.13
46534;BME280;32260;52.008;4.752;2023-02-26T01:46:57;102170.63;;;3.78;60.99
46534;BME280;32260;52.008;4.752;2023-02-26T01:49:27;102179.81;;;3.63;61.11
46534;BME280;32260;52.008;4.752;2023-02-26T01:51:56;102178.66;;;3.55;61.04
46534;BME280;32260;52.008;4.752;2023-02-26T01:54:27;102174.03;;;3.46;61.03
46534;BME280;32260;52.008;4.752;2023-02-26T01:56:59;102181.69;;;3.40;60.15
46534;BME280;32260;52.008;4.752;2023-02-26T01:59:31;102183.25;;;3.33;59.65
46534;BME280;32260;52.008;4.752;2023-02-26T02:01:59;102185.72;;;3.29;59.71
46534;BME280;32260;52.008;4.752;2023-02-26T02:04:27;102185.53;;;3.22;59.89
46534;BME280;32260;52.008;4.752;2023-02-26T02:06:55;102194.97;;;3.17;60.03
46534;BME280;32260;52.008;4.752;2023-02-26T02:09:21;102195.69;;;3.12;59.19
46534;BME280;32260;52.008;4.752;2023-02-26T02:11:58;102198.22;;;3.10;59.75
46534;BME280;32260;52.008;4.752;2023-02-26T02:14:43;102198.03;;;3.04;58.99
46534;BME280;32260;52.008;4.752;2023-02-26T02:26:55;102211.50;;;2.89;59.52
46534;BME280;32260;52.008;4.752;2023-02-26T02:29:07;102207.78;;;2.82;60.07
46534;BME280;32260;52.008;4.752;2023-02-26T02:34:28;102213.44;;;2.69;60.02
46534;BME280;32260;52.008;4.752;2023-02-26T02:37:06;102219.41;;;2.65;60.20
46534;BME280;32260;52.008;4.752;2023-02-26T02:39:49;102221.06;;;2.63;60.07
46534;BME280;32260;52.008;4.752;2023-02-26T02:42:25;102227.03;;;2.58;60.27
46534;BME280;32260;52.008;4.752;2023-02-26T02:45:00;102220.75;;;2.53;60.44
46534;BME280;32260;52.008;4.752;2023-02-26T02:47:31;102229.31;;;2.49;60.81
46534;BME280;32260;52.008;4.752;2023-02-26T02:50:07;102230.19;;;2.48;60.54
46534;BME280;32260;52.008;4.752;2023-02-26T02:52:43;102231.75;;;2.43;60.57
46534;BME280;32260;52.008;4.752;2023-02-26T02:55:18;102232.50;;;2.40;60.70
46534;BME280;32260;52.008;4.752;2023-02-26T02:57:52;102229.78;;;2.37;60.69
46534;BME280;32260;52.008;4.752;2023-02-26T03:00:21;102235.75;;;2.33;60.92
46534;BME280;32260;52.008;4.752;2023-02-26T03:02:58;102234.78;;;2.31;61.19
46534;BME280;32260;52.008;4.752;2023-02-26T03:05:27;102234.63;;;2.26;60.88
46534;BME280;32260;52.008;4.752;2023-02-26T03:07:56;102245.97;;;2.27;61.02
46534;BME280;32260;52.008;4.752;2023-02-26T03:10:23;102247.53;;;2.22;60.85
46534;BME280;32260;52.008;4.752;2023-02-26T03:12:49;102241.41;;;2.21;60.87
46534;BME280;32260;52.008;4.752;2023-02-26T03:15:22;102246.63;;;2.21;60.92
46534;BME280;32260;52.008;4.752;2023-02-26T03:18:04;102253.66;;;2.22;60.99
46534;BME280;32260;52.008;4.752;2023-02-26T03:20:45;102245.63;;;2.18;61.48
46534;BME280;32260;52.008;4.752;2023-02-26T03:23:18;102246.41;;;2.15;61.36
46534;BME280;32260;52.008;4.752;2023-02-26T03:36:39;102260.69;;;2.01;61.83
46534;BME280;32260;52.008;4.752;2023-02-26T03:39:21;102269.31;;;1.98;61.64
46534;BME280;32260;52.008;4.752;2023-02-26T03:41:59;102275.28;;;1.96;61.73
46534;BME280;32260;52.008;4.752;2023-02-26T03:44:34;102276.84;;;1.90;61.81
46534;BME280;32260;52.008;4.752;2023-02-26T03:47:06;102280.19;;;1.86;62.11
46534;BME280;32260;52.008;4.752;2023-02-26T03:49:39;102281.81;;;1.84;62.10
46534;BME280;32260;52.008;4.752;2023-02-26T03:52:07;102284.19;;;1.78;62.24
46534;BME280;32260;52.008;4.752;2023-02-26T03:54:38;102284.28;;;1.80;62.44
46534;BME280;32260;52.008;4.752;2023-02-26T03:57:06;102294.53;;;1.75;62.35
46534;BME280;32260;52.008;4.752;2023-02-26T03:59:33;102289.28;;;1.73;62.45
46534;BME280;32260;52.008;4.752;2023-02-26T04:02:04;102295.25;;;1.71;62.64
46534;BME280;32260;52.008;4.752;2023-02-26T04:04:58;102294.53;;;1.75;62.58
46534;BME280;32260;52.008;4.752;2023-02-26T04:07:26;102303.78;;;1.67;62.34
46534;BME280;32260;52.008;4.752;2023-02-26T04:09:53;102300.25;;;1.65;62.32
46534;BME280;32260;52.008;4.752;2023-02-26T04:12:24;102303.69;;;1.64;62.24
46534;BME280;32260;52.008;4.752;2023-02-26T04:14:50;102307.88;;;1.60;62.55
46534;BME280;32260;52.008;4.752;2023-02-26T04:17:17;102317.44;;;1.59;62.28
46534;BME280;32260;52.008;4.752;2023-02-26T04:19:43;102317.31;;;1.56;62.49
46534;BME280;32260;52.008;4.752;2023-02-26T04:22:10;102319.88;;;1.55;62.37
46534;BME280;32260;52.008;4.752;2023-02-26T04:24:36;102327.63;;;1.53;62.59
46534;BME280;32260;52.008;4.752;2023-02-26T04:27:02;102330.19;;;1.52;62.27
46534;BME280;32260;52.008;4.752;2023-02-26T04:29:28;102327.47;;;1.49;62.48
46534;BME280;32260;52.008;4.752;2023-02-26T04:31:54;102333.50;;;1.48;62.87
46534;BME280;32260;52.008;4.752;2023-02-26T04:34:20;102333.44;;;1.46;62.35
46534;BME280;32260;52.008;4.752;2023-02-26T04:36:46;102335.97;;;1.44;63.06
46534;BME280;32260;52.008;4.752;2023-02-26T04:39:13;102335.91;;;1.43;62.51
46534;BME280;32260;52.008;4.752;2023-02-26T04:41:39;102338.47;;;1.41;62.59
46534;BME280;32260;52.008;4.752;2023-02-26T04:44:06;102339.25;;;1.39;62.32
46534;BME280;32260;52.008;4.752;2023-02-26T04:46:32;102341.84;;;1.39;62.55
46534;BME280;32260;52.008;4.752;2023-02-26T04:48:58;102348.78;;;1.38;62.43
46534;BME280;32260;52.008;4.752;2023-02-26T04:51:25;102349.53;;;1.36;62.52
46534;BME280;32260;52.008;4.752;2023-02-26T04:53:51;102347.78;;;1.35;62.64
46534;BME280;32260;52.008;4.752;2023-02-26T04:56:17;102349.47;;;1.34;62.65
46534;BME280;32260;52.008;4.752;2023-02-26T04:58:44;102353.78;;;1.32;62.97
46534;BME280;32260;52.008;4.752;2023-02-26T05:01:10;102348.41;;;1.29;62.59
46534;BME280;32260;52.008;4.752;2023-02-26T05:03:38;102363.03;;;1.25;62.75
46534;BME280;32260;52.008;4.752;2023-02-26T05:06:04;102347.25;;;1.22;62.64
46534;BME280;32260;52.008;4.752;2023-02-26T05:08:30;102352.34;;;1.19;62.71
46534;BME280;32260;52.008;4.752;2023-02-26T05:10:56;102372.25;;;1.17;62.66
46534;BME280;32260;52.008;4.752;2023-02-26T05:13:22;102373.09;;;1.16;62.90
46534;BME280;32260;52.008;4.752;2023-02-26T05:15:49;102376.53;;;1.15;63.09
46534;BME280;32260;52.008;4.752;2023-02-26T05:18:15;102374.75;;;1.14;62.84
46534;BME280;32260;52.008;4.752;2023-02-26T05:20:41;102379.97;;;1.14;63.16
46534;BME280;32260;52.008;4.752;2023-02-26T05:23:07;102383.41;;;1.13;63.15
46534;BME280;32260;52.008;4.752;2023-02-26T05:25:33;102389.44;;;1.12;62.86
46534;BME280;32260;52.008;4.752;2023-02-26T05:27:59;102392.81;;;1.09;62.96
46534;BME280;32260;52.008;4.752;2023-02-26T05:30:25;102400.72;;;1.11;63.45
46534;BME280;32260;52.008;4.752;2023-02-26T05:32:51;102397.16;;;1.09;63.01
46534;BME280;32260;52.008;4.752;2023-02-26T05:35:17;102404.00;;;1.07;63.00
46534;BME280;32260;52.008;4.752;2023-02-26T05:37:43;102413.50;;;1.05;62.94
46534;BME280;32260;52.008;4.752;2023-02-26T05:40:10;102414.34;;;1.04;63.38
46534;BME280;32260;52.008;4.752;2023-02-26T05:42:38;102429.84;;;1.01;63.08
46534;BME280;32260;52.008;4.752;2023-02-26T05:45:04;102416.72;;;0.99;63.29
46534;BME280;32260;52.008;4.752;2023-02-26T05:47:32;102429.72;;;0.98;63.34
46534;BME280;32260;52.008;4.752;2023-02-26T05:49:59;102425.25;;;0.95;63.00
46534;BME280;32260;52.008;4.752;2023-02-26T05:52:25;102427.78;;;0.93;63.07
46534;BME280;32260;52.008;4.752;2023-02-26T05:54:51;102426.00;;;0.92;63.12
46534;BME280;32260;52.008;4.752;2023-02-26T05:57:17;102432.88;;;0.90;63.34
46534;BME280;32260;52.008;4.752;2023-02-26T05:59:43;102443.31;;;0.90;63.38
46534;BME280;32260;52.008;4.752;2023-02-26T06:02:09;102444.06;;;0.88;62.93
46534;BME280;32260;52.008;4.752;2023-02-26T06:04:35;102450.03;;;0.85;63.26
46534;BME280;32260;52.008;4.752;2023-02-26T06:07:01;102456.06;;;0.84;62.93
46534;BME280;32260;52.008;4.752;2023-02-26T06:09:28;102454.22;;;0.82;63.00
46534;BME280;32260;52.008;4.752;2023-02-26T06:11:54;102460.25;;;0.80;63.25
46534;BME280;32260;52.008;4.752;2023-02-26T06:14:20;102456.75;;;0.80;63.24
46534;BME280;32260;52.008;4.752;2023-02-26T06:16:46;102464.50;;;0.78;63.34
46534;BME280;32260;52.008;4.752;2023-02-26T06:19:12;102463.50;;;0.75;62.82
46534;BME280;32260;52.008;4.752;2023-02-26T06:21:38;102459.09;;;0.74;62.96
46534;BME280;32260;52.008;4.752;2023-02-26T06:24:04;102459.91;;;0.73;62.98
46534;BME280;32260;52.008;4.752;2023-02-26T06:26:31;102463.19;;;0.69;63.42
46534;BME280;32260;52.008;4.752;2023-02-26T06:28:57;102462.28;;;0.68;63.29
46534;BME280;32260;52.008;4.752;2023-02-26T06:31:23;102464.84;;;0.67;63.68
46534;BME280;32260;52.008;4.752;2023-02-26T06:33:49;102468.25;;;0.66;63.35
46534;BME280;32260;52.008;4.752;2023-02-26T06:36:15;102469.06;;;0.64;63.52
46534;BME280;32260;52.008;4.752;2023-02-26T06:38:42;102481.19;;;0.62;63.21
46534;BME280;32260;52.008;4.752;2023-02-26T06:41:10;102487.22;;;0.61;63.57
46534;BME280;32260;52.008;4.752;2023-02-26T06:43:36;102486.28;;;0.61;63.04
46534;BME280;32260;52.008;4.752;2023-02-26T06:46:02;102502.84;;;0.61;63.42
46534;BME280;32260;52.008;4.752;2023-02-26T06:48:28;102503.69;;;0.60;63.23
46534;BME280;32260;52.008;4.752;2023-02-26T06:50:55;102501.94;;;0.61;63.63
46534;BME280;32260;52.008;4.752;2023-02-26T06:53:21;102502.94;;;0.63;63.80
46534;BME280;32260;52.008;4.752;2023-02-26T06:55:50;102516.13;;;0.66;63.85
46534;BME280;32260;52.008;4.752;2023-02-26T06:58:16;102511.72;;;0.65;63.86
46534;BME280;32260;52.008;4.752;2023-02-26T07:00:43;102523.03;;;0.66;64.08
46534;BME280;32260;52.008;4.752;2023-02-26T07:03:12;102529.38;;;0.71;64.16
46534;BME280;32260;52.008;4.752;2023-02-26T07:05:39;102532.78;;;0.70;63.66
46534;BME280;32260;52.008;4.752;2023-02-26T07:08:05;102533.84;;;0.73;63.94
46534;BME280;32260;52.008;4.752;2023-02-26T07:10:33;102534.88;;;0.77;63.95
46534;BME280;32260;52.008;4.752;2023-02-26T07:12:59;102541.13;;;0.80;63.72
46534;BME280;32260;52.008;4.752;2023-02-26T07:15:26;102536.91;;;0.83;63.03
46534;BME280;32260;52.008;4.752;2023-02-26T07:17:52;102538.88;;;0.88;63.47
46534;BME280;32260;52.008;4.752;2023-02-26T07:20:18;102542.59;;;0.93;62.81
46534;BME280;32260;52.008;4.752;2023-02-26T07:22:45;102546.34;;;0.99;63.33
46534;BME280;32260;52.008;4.752;2023-02-26T07:25:12;102551.88;;;1.05;62.73
46534;BME280;32260;52.008;4.752;2023-02-26T07:27:38;102559.06;;;1.10;62.49
46534;BME280;32260;52.008;4.752;2023-02-26T07:30:07;102560.34;;;1.19;62.58
46534;BME280;32260;52.008;4.752;2023-02-26T07:32:33;102561.50;;;1.25;62.40
46534;BME280;32260;52.008;4.752;2023-02-26T07:34:59;102568.78;;;1.33;62.39
46534;BME280;32260;52.008;4.752;2023-02-26T07:37:25;102570.72;;;1.37;62.12
46534;BME280;32260;52.008;4.752;2023-02-26T07:39:51;102571.00;;;1.43;62.06
46534;BME280;32260;52.008;4.752;2023-02-26T07:42:17;102578.16;;;1.47;61.56
46534;BME280;32260;52.008;4.752;2023-02-26T07:44:44;102579.38;;;1.55;61.50
46534;BME280;32260;52.008;4.752;2023-02-26T07:47:10;102582.28;;;1.61;61.37
46534;BME280;32260;52.008;4.752;2023-02-26T07:49:36;102593.00;;;1.68;61.04
46534;BME280;32260;52.008;4.752;2023-02-26T07:52:03;102595.06;;;1.75;61.17
46534;BME280;32260;52.008;4.752;2023-02-26T07:54:30;102584.88;;;1.81;61.31
46534;BME280;32260;52.008;4.752;2023-02-26T07:56:56;102595.63;;;1.87;61.47
46534;BME280;32260;52.008;4.752;2023-02-26T07:59:22;102599.31;;;1.92;61.00
46534;BME280;32260;52.008;4.752;2023-02-26T08:01:48;102604.00;;;2.00;61.07
46534;BME280;32260;52.008;4.752;2023-02-26T08:04:14;102605.97;;;2.05;60.94
46534;BME280;32260;52.008;4.752;2023-02-26T08:06:40;102603.56;;;2.10;60.71
46534;BME280;32260;52.008;4.752;2023-02-26T08:09:07;102610.84;;;2.17;60.70
46534;BME280;32260;52.008;4.752;2023-02-26T08:11:33;102614.63;;;2.24;60.46
46534;BME280;32260;52.008;4.752;2023-02-26T08:14:01;102610.56;;;2.31;60.54
46534;BME280;32260;52.008;4.752;2023-02-26T08:16:28;102611.66;;;2.36;60.49
46534;BME280;32260;52.008;4.752;2023-02-26T08:18:54;102617.13;;;2.42;60.41
46534;BME280;32260;52.008;4.752;2023-02-26T08:21:20;102623.56;;;2.50;60.50
46534;BME280;32260;52.008;4.752;2023-02-26T08:23:46;102627.41;;;2.58;60.36
46534;BME280;32260;52.008;4.752;2023-02-26T08:26:13;102621.47;;;2.63;60.04
46534;BME280;32260;52.008;4.752;2023-02-26T08:28:39;102623.50;;;2.70;59.55
46534;BME280;32260;52.008;4.752;2023-02-26T08:31:06;102623.91;;;2.79;59.38
46534;BME280;32260;52.008;4.752;2023-02-26T08:33:33;102627.59;;;2.84;58.58
46534;BME280;32260;52.008;4.752;2023-02-26T08:35:59;102629.84;;;2.98;58.92
46534;BME280;32260;52.008;4.752;2023-02-26T08:38:27;102634.66;;;3.08;58.86
46534;BME280;32260;52.008;4.752;2023-02-26T08:40:54;102639.28;;;3.15;56.95
46534;BME280;32260;52.008;4.752;2023-02-26T08:43:21;102645.91;;;3.28;58.51
46534;BME280;32260;52.008;4.752;2023-02-26T08:45:58;102644.84;;;3.46;57.76
46534;BME280;32260;52.008;4.752;2023-02-26T08:48:25;102652.03;;;3.51;57.42
46534;BME280;32260;52.008;4.752;2023-02-26T08:50:51;102657.50;;;3.58;56.79
46534;BME280;32260;52.008;4.752;2023-02-26T08:53:17;102656.91;;;3.65;55.82
46534;BME280;32260;52.008;4.752;2023-02-26T08:55:47;102674.06;;;3.79;56.32
46534;BME280;32260;52.008;4.752;2023-02-26T08:58:14;102666.47;;;3.87;56.12
46534;BME280;32260;52.008;4.752;2023-02-26T09:00:40;102664.81;;;3.89;54.78
46534;BME280;32260;52.008;4.752;2023-02-26T09:03:06;102676.69;;;4.03;55.09
46534;BME280;32260;52.008;4.752;2023-02-26T09:05:32;102665.41;;;4.06;54.55
46534;BME280;32260;52.008;4.752;2023-02-26T09:07:58;102670.31;;;4.21;54.02
46534;BME280;32260;52.008;4.752;2023-02-26T09:10:24;102681.81;;;4.25;52.39
46534;BME280;32260;52.008;4.752;2023-02-26T09:12:50;102682.16;;;4.34;52.77
46534;BME280;32260;52.008;4.752;2023-02-26T09:15:17;102678.97;;;4.43;53.41
46534;BME280;32260;52.008;4.752;2023-02-26T09:17:43;102680.22;;;4.54;53.45
46534;BME280;32260;52.008;4.752;2023-02-26T09:20:10;102695.28;;;4.60;51.77
46534;BME280;32260;52.008;4.752;2023-02-26T09:22:36;102690.38;;;4.69;51.47
46534;BME280;32260;52.008;4.752;2023-02-26T09:25:03;102699.28;;;4.74;50.52
46534;BME280;32260;52.008;4.752;2023-02-26T09:27:30;102692.56;;;4.82;50.69
46534;BME280;32260;52.008;4.752;2023-02-26T09:29:56;102696.53;;;4.97;51.72
46534;BME280;32260;52.008;4.752;2023-02-26T09:32:22;102697.72;;;5.07;50.61
46534;BME280;32260;52.008;4.752;2023-02-26T09:34:51;102697.06;;;5.12;49.92
46534;BME280;32260;52.008;4.752;2023-02-26T09:37:17;102700.91;;;5.24;49.61
46534;BME280;32260;52.008;4.752;2023-02-26T09:39:44;102704.66;;;5.32;50.58
46534;BME280;32260;52.008;4.752;2023-02-26T09:43:05;102713.03;;;5.47;50.32
46534;BME280;32260;52.008;4.752;2023-02-26T09:45:34;102708.91;;;5.56;49.56
46534;BME280;32260;52.008;4.752;2023-02-26T09:48:04;102715.94;;;5.57;49.28
46534;BME280;32260;52.008;4.752;2023-02-26T09:50:54;102721.69;;;5.72;49.37
46534;BME280;32260;52.008;4.752;2023-02-26T09:56:06;102719.38;;;5.83;48.97
46534;BME280;32260;52.008;4.752;2023-02-26T09:58:37;102723.22;;;5.94;49.42
46534;BME280;32260;52.008;4.752;2023-02-26T10:01:26;102721.91;;;6.09;48.23
46534;BME280;32260;52.008;4.752;2023-02-26T10:10:14;102728.84;;;6.37;47.35
46534;BME280;32260;52.008;4.752;2023-02-26T10:12:42;102735.94;;;6.40;47.34
46534;BME280;32260;52.008;4.752;2023-02-26T10:15:22;102738.94;;;6.54;46.87
46534;BME280;32260;52.008;4.752;2023-02-26T10:21:01;102743.78;;;6.70;46.90
46534;BME280;32260;52.008;4.752;2023-02-26T10:23:49;102744.06;;;6.81;46.24
46534;BME280;32260;52.008;4.752;2023-02-26T10:35:15;102759.88;;;7.16;46.29
46534;BME280;32260;52.008;4.752;2023-02-26T10:49:01;102764.41;;;7.20;45.24
46534;BME280;32260;52.008;4.752;2023-02-26T10:51:39;102769.94;;;7.31;45.59
46534;BME280;32260;52.008;4.752;2023-02-26T10:54:30;102764.94;;;7.43;44.64
46534;BME280;32260;52.008;4.752;2023-02-26T10:56:58;102765.28;;;7.57;44.92
46534;BME280;32260;52.008;4.752;2023-02-26T10:59:24;102761.66;;;7.54;45.55
46534;BME280;32260;52.008;4.752;2023-02-26T11:01:51;102768.97;;;7.64;45.81
46534;BME280;32260;52.008;4.752;2023-02-26T11:04:21;102763.81;;;7.70;44.32
46534;BME280;32260;52.008;4.752;2023-02-26T11:06:56;102770.91;;;7.71;45.02
46534;BME280;32260;52.008;4.752;2023-02-26T11:12:17;102778.47;;;7.97;44.13
46534;BME280;32260;52.008;4.752;2023-02-26T11:14:47;102775.94;;;8.02;45.19
46534;BME280;32260;52.008;4.752;2023-02-26T11:17:17;102773.50;;;8.11;43.97
46534;BME280;32260;52.008;4.752;2023-02-26T11:19:57;102766.75;;;8.24;43.81
46534;BME280;32260;52.008;4.752;2023-02-26T11:22:28;102768.56;;;8.26;43.79
46534;BME280;32260;52.008;4.752;2023-02-26T11:24:56;102764.28;;;8.35;43.40
46534;BME280;32260;52.008;4.752;2023-02-26T11:27:29;102765.22;;;8.35;43.50
46534;BME280;32260;52.008;4.752;2023-02-26T11:29:59;102771.34;;;8.34;42.04
46534;BME280;32260;52.008;4.752;2023-02-26T11:32:33;102768.78;;;8.37;42.95
46534;BME280;32260;52.008;4.752;2023-02-26T11:35:00;102768.66;;;8.31;42.95
46534;BME280;32260;52.008;4.752;2023-02-26T11:37:33;102761.47;;;8.24;42.77
46534;BME280;32260;52.008;4.752;2023-02-26T11:40:06;102763.03;;;8.16;43.59
46534;BME280;32260;52.008;4.752;2023-02-26T11:42:47;102764.03;;;8.21;43.09
46534;BME280;32260;52.008;4.752;2023-02-26T11:45:17;102765.09;;;8.29;44.02
46534;BME280;32260;52.008;4.752;2023-02-26T11:47:44;102764.34;;;8.36;43.44
46534;BME280;32260;52.008;4.752;2023-02-26T11:50:16;102766.28;;;8.45;41.92
46534;BME280;32260;52.008;4.752;2023-02-26T11:52:45;102760.47;;;8.63;42.40
46534;BME280;32260;52.008;4.752;2023-02-26T11:55:31;102760.91;;;8.85;43.01
46534;BME280;32260;52.008;4.752;2023-02-26T11:57:57;102753.97;;;8.93;42.69
46534;BME280;32260;52.008;4.752;2023-02-26T12:00:34;102755.31;;;9.18;42.79
46534;BME280;32260;52.008;4.752;2023-02-26T12:03:03;102753.56;;;9.20;40.31
46534;BME280;32260;52.008;4.752;2023-02-26T12:05:33;102746.63;;;9.27;41.47
46534;BME280;32260;52.008;4.752;2023-02-26T12:08:00;102752.72;;;9.23;41.39
46534;BME280;32260;52.008;4.752;2023-02-26T12:10:37;102748.38;;;9.27;41.23
46534;BME280;32260;52.008;4.752;2023-02-26T12:13:20;102761.56;;;9.25;41.98
46534;BME280;32260;52.008;4.752;2023-02-26T12:16:15;102748.44;;;9.30;41.59
46534;BME280;32260;52.008;4.752;2023-02-26T12:18:50;102742.22;;;9.29;41.45
46534;BME280;32260;52.008;4.752;2023-02-26T12:21:30;102737.97;;;9.39;42.22
46534;BME280;32260;52.008;4.752;2023-02-26T12:24:31;102747.81;;;9.49;42.01
46534;BME280;32260;52.008;4.752;2023-02-26T12:35:59;102739.56;;;9.89;41.24
46534;BME280;32260;52.008;4.752;2023-02-26T12:39:31;102735.22;;;9.94;40.73
46534;BME280;32260;52.008;4.752;2023-02-26T12:41:24;102738.00;;;10.03;41.47
46534;BME280;32260;52.008;4.752;2023-02-26T12:43:58;102743.41;;;10.13;41.08
46534;BME280;32260;52.008;4.752;2023-02-26T12:49:38;102747.38;;;10.46;40.76
46534;BME280;32260;52.008;4.752;2023-02-26T12:52:20;102741.19;;;10.47;39.61
46534;BME280;32260;52.008;4.752;2023-02-26T13:20:45;102751.88;;;9.85;41.50
46534;BME280;32260;52.008;4.752;2023-02-26T13:23:22;102753.03;;;10.04;41.11
46534;BME280;32260;52.008;4.752;2023-02-26T13:25:54;102746.03;;;10.10;41.16
46534;BME280;32260;52.008;4.752;2023-02-26T13:28:38;102739.78;;;10.04;41.43
46534;BME280;32260;52.008;4.752;2023-02-26T13:31:16;102745.03;;;10.01;41.51
46534;BME280;32260;52.008;4.752;2023-02-26T13:33:45;102741.53;;;10.04;41.70
46534;BME280;32260;52.008;4.752;2023-02-26T13:36:15;102748.69;;;10.10;42.02
46534;BME280;32260;52.008;4.752;2023-02-26T13:39:35;102755.06;;;10.27;40.78
46534;BME280;32260;52.008;4.752;2023-02-26T13:42:01;102752.50;;;10.33;41.68
46534;BME280;32260;52.008;4.752;2023-02-26T13:44:53;102749.16;;;10.48;42.16
46534;BME280;32260;52.008;4.752;2023-02-26T13:53:04;102742.28;;;10.67;40.78
46534;BME280;32260;52.008;4.752;2023-02-26T13:55:51;102734.38;;;10.74;40.28
46534;BME280;32260;52.008;4.752;2023-02-26T13:58:39;102733.28;;;10.51;39.40
46534;BME280;32260;52.008;4.752;2023-02-26T14:03:49;102728.75;;;10.38;41.79
46534;BME280;32260;52.008;4.752;2023-02-26T14:06:38;102727.06;;;10.48;39.97
46534;BME280;32260;52.008;4.752;2023-02-26T14:18:04;102733.31;;;10.55;41.30
46534;BME280;32260;52.008;4.752;2023-02-26T14:20:33;102740.22;;;10.42;40.06
46534;BME280;32260;52.008;4.752;2023-02-26T14:23:23;102740.38;;;10.54;40.87
46534;BME280;32260;52.008;4.752;2023-02-26T14:25:52;102741.28;;;10.55;41.49
46534;BME280;32260;52.008;4.752;2023-02-26T14:36:45;102740.63;;;10.79;40.66
46534;BME280;32260;52.008;4.752;2023-02-26T14:39:24;102741.50;;;10.78;40.15
46534;BME280;32260;52.008;4.752;2023-02-26T14:41:58;102743.16;;;10.66;39.85
46534;BME280;32260;52.008;4.752;2023-02-26T14:44:29;102742.19;;;10.58;39.99
46534;BME280;32260;52.008;4.752;2023-02-26T14:46:58;102746.72;;;10.67;40.70
46534;BME280;32260;52.008;4.752;2023-02-26T14:49:34;102745.00;;;10.74;40.05
46534;BME280;32260;52.008;4.752;2023-02-26T14:57:50;102745.06;;;10.78;39.99
46534;BME280;32260;52.008;4.752;2023-02-26T15:06:57;102740.50;;;10.66;39.40
46534;BME280;32260;52.008;4.752;2023-02-26T15:09:19;102754.53;;;10.56;39.66
46534;BME280;32260;52.008;4.752;2023-02-26T15:18:34;102736.06;;;10.62;40.10
46534;BME280;32260;52.008;4.752;2023-02-26T15:25:38;102741.28;;;10.55;40.21
46534;BME280;32260;52.008;4.752;2023-02-26T15:28:08;102740.28;;;10.45;39.57
46534;BME280;32260;52.008;4.752;2023-02-26T15:30:35;102742.94;;;10.43;39.99
46534;BME280;32260;52.008;4.752;2023-02-26T15:33:09;102742.06;;;10.46;39.97
46534;BME280;32260;52.008;4.752;2023-02-26T15:35:36;102740.34;;;10.51;40.63
46534;BME280;32260;52.008;4.752;2023-02-26T15:38:03;102735.91;;;10.48;39.76
46534;BME280;32260;52.008;4.752;2023-02-26T15:40:33;102740.28;;;10.45;39.98
46534;BME280;32260;52.008;4.752;2023-02-26T15:43:02;102740.16;;;10.35;39.53
46534;BME280;32260;52.008;4.752;2023-02-26T15:45:40;102747.13;;;10.30;38.80
46534;BME280;32260;52.008;4.752;2023-02-26T15:48:11;102746.19;;;10.22;39.58
46534;BME280;32260;52.008;4.752;2023-02-26T15:50:42;102747.97;;;10.23;39.69
46534;BME280;32260;52.008;4.752;2023-02-26T15:53:12;102743.47;;;10.19;39.22
46534;BME280;32260;52.008;4.752;2023-02-26T15:55:47;102744.34;;;10.18;39.55
46534;BME280;32260;52.008;4.752;2023-02-26T15:58:21;102750.41;;;10.08;39.68